Time;durP1;ratioP1;P1;durP2;ratioP2;P2;SDS_P1;SDS_P2;PMS_P1;PMS_P2;Temp;Humidity;BMP_temperature;BMP_pressure;BME280_temperature;BME280_humidity;BME280_pressure;Samples;Min_cycle;Max_cycle;Signal;HPM_P1;HPM_P2
2023/09/15 00:01:52;;;;;;;5.50;3.87;;;;;;;12.30;100.00;98280.66;6222289;28;20227;-50
2023/09/15 00:05:09;;;;;;;7.53;4.03;;;;;;;12.29;100.00;98281.72;6203101;28;20729;-53
2023/09/15 00:08:17;;;;;;;6.33;3.93;;;;;;;12.27;100.00;98273.16;6220401;28;20234;-53
2023/09/15 00:11:22;;;;;;;4.80;3.53;;;;;;;12.20;100.00;98274.31;6224141;28;20235;-50
2023/09/15 00:14:24;;;;;;;4.97;4.07;;;;;;;12.23;100.00;98280.00;6199471;28;20223;-51
2023/09/15 00:17:27;;;;;;;5.20;3.70;;;;;;;12.23;100.00;98277.34;6203325;28;20240;-52
2023/09/15 00:20:30;;;;;;;3.93;3.57;;;;;;;12.26;100.00;98284.06;6217549;28;20309;-51
2023/09/15 00:23:32;;;;;;;3.73;3.27;;;;;;;12.32;100.00;98286.59;6208885;28;20228;-53
2023/09/15 00:26:35;;;;;;;3.97;3.67;;;;;;;12.36;100.00;98295.78;6226393;28;20307;-53
2023/09/15 00:29:38;;;;;;;3.93;3.53;;;;;;;12.39;100.00;98294.47;6218995;28;20612;-53
2023/09/15 00:32:45;;;;;;;3.90;3.60;;;;;;;12.42;100.00;98293.19;6200866;28;20621;-53
2023/09/15 00:35:48;;;;;;;4.20;3.80;;;;;;;12.31;100.00;98295.63;6227050;28;20229;-53
2023/09/15 00:38:50;;;;;;;4.20;3.80;;;;;;;12.31;100.00;98305.53;6226366;28;20228;-54
2023/09/15 00:41:53;;;;;;;5.80;4.20;;;;;;;12.22;100.00;98298.94;6221756;28;20227;-52
2023/09/15 00:45:03;;;;;;;5.87;4.17;;;;;;;12.12;100.00;98303.03;6222867;28;20239;-53
2023/09/15 00:48:10;;;;;;;4.17;3.77;;;;;;;12.08;100.00;98301.06;6215871;28;20223;-53
2023/09/15 00:51:14;;;;;;;9.03;4.50;;;;;;;11.32;100.00;98190.81;6252475;23;20223;-91
2023/09/15 00:54:17;;;;;;;4.60;3.83;;;;;;;10.18;100.00;98003.81;6210012;28;20198;-91
2023/09/15 00:57:20;;;;;;;4.70;4.30;;;;;;;10.85;100.00;98121.53;6238183;28;20570;-91
2023/09/15 01:00:23;;;;;;;3.87;3.33;;;;;;;11.29;100.00;98178.75;6232873;28;20605;-91
2023/09/15 01:03:29;;;;;;;4.43;4.03;;;;;;;11.49;100.00;98205.06;6235866;28;20268;-91
2023/09/15 01:06:35;;;;;;;4.20;3.77;;;;;;;11.29;100.00;98180.63;6212810;28;20223;-91
2023/09/15 01:09:40;;;;;;;4.10;3.73;;;;;;;12.27;100.00;98302.53;6234894;28;20662;-91
2023/09/15 01:12:43;;;;;;;4.77;4.33;;;;;;;10.54;100.00;98040.06;6235271;28;20227;-90
2023/09/15 01:16:04;;;;;;;4.40;4.00;;;;;;;11.63;100.00;98222.44;6230737;28;20744;-91
2023/09/15 01:19:20;;;;;;;4.73;3.80;;;;;;;12.13;100.00;98298.50;6238378;28;20219;-91
2023/09/15 01:22:37;;;;;;;6.33;3.90;;;;;;;10.83;100.00;98100.41;6211120;28;20235;-91
2023/09/15 01:26:13;;;;;;;3.90;3.53;;;;;;;12.08;100.00;98301.06;6208377;28;20228;-91
2023/09/15 01:29:17;;;;;;;4.40;4.00;;;;;;;12.12;100.00;98304.91;6214164;28;20220;-91
2023/09/15 01:32:22;;;;;;;3.87;3.57;;;;;;;12.14;100.00;98300.13;6235088;28;20704;-90
2023/09/15 01:35:25;;;;;;;4.47;3.73;;;;;;;11.10;100.00;98147.94;6230877;28;20235;-91
2023/09/15 01:38:27;;;;;;;4.17;3.83;;;;;;;10.73;100.00;98102.06;6227874;28;20312;-91
2023/09/15 01:41:31;;;;;;;4.47;3.67;;;;;;;11.47;100.00;98223.13;6226378;28;20318;-91
2023/09/15 01:44:33;;;;;;;4.13;3.73;;;;;;;10.78;100.00;98137.63;6219637;28;20223;-91
2023/09/15 01:47:37;;;;;;;5.87;4.37;;;;;;;10.03;100.00;98034.34;6234546;28;20316;-91
2023/09/15 01:50:43;;;;;;;4.73;3.43;;;;;;;10.04;100.00;98045.81;6232399;28;20716;-90
2023/09/15 01:53:45;;;;;;;4.77;4.17;;;;;;;10.18;100.00;98057.88;6211256;28;20238;-91
2023/09/15 01:56:49;;;;;;;3.70;3.40;;;;;;;10.67;100.00;98148.28;6223617;28;20230;-90
2023/09/15 01:59:51;;;;;;;4.90;4.03;;;;;;;11.73;100.00;98325.13;6242067;28;20241;-91
2023/09/15 02:02:53;;;;;;;8.70;4.17;;;;;;;9.98;100.00;98058.19;6210246;28;20232;-91
2023/09/15 02:06:01;;;;;;;8.00;3.80;;;;;;;11.35;100.00;98270.38;6207288;28;20232;-91
2023/09/15 02:09:06;;;;;;;6.03;4.07;;;;;;;10.12;100.00;98077.44;6209540;28;20219;-90
2023/09/15 02:12:09;;;;;;;4.67;4.23;;;;;;;11.54;100.00;98321.75;6211146;28;20216;-91
2023/09/15 02:15:14;;;;;;;4.57;4.17;;;;;;;10.64;100.00;98192.19;6212646;28;20196;-90
2023/09/15 02:18:16;;;;;;;4.30;3.90;;;;;;;10.40;100.00;98180.69;6225929;28;20207;-92
2023/09/15 02:21:19;;;;;;;4.30;3.90;;;;;;;10.87;100.00;98243.88;6211918;28;20736;-91
2023/09/15 02:24:21;;;;;;;5.07;4.20;;;;;;;11.46;100.00;98319.44;6225259;28;20232;-91
2023/09/15 02:27:24;;;;;;;3.87;3.57;;;;;;;10.57;100.00;98191.47;6202230;28;20220;-91
2023/09/15 02:30:26;;;;;;;5.83;3.90;;;;;;;9.83;100.00;98063.94;6212186;28;20314;-92
2023/09/15 02:33:29;;;;;;;5.27;3.87;;;;;;;10.66;100.00;98178.63;6244280;28;20226;-91
2023/09/15 02:36:31;;;;;;;4.80;3.93;;;;;;;10.70;100.00;98166.47;6222529;28;20219;-91
2023/09/15 02:39:35;;;;;;;4.53;4.13;;;;;;;10.05;100.00;98108.69;6233771;28;20224;-92
2023/09/15 02:42:37;;;;;;;7.87;3.70;;;;;;;10.89;100.00;98228.50;6236009;28;20227;-91
2023/09/15 02:45:39;;;;;;;7.90;4.70;;;;;;;10.42;100.00;98153.81;6221647;28;20223;-91
2023/09/15 02:48:43;;;;;;;5.33;3.77;;;;;;;9.79;100.00;98070.75;6212855;28;20225;-91
2023/09/15 02:51:46;;;;;;;4.43;4.03;;;;;;;10.24;100.00;98141.38;6210167;28;20219;-92
2023/09/15 02:54:49;;;;;;;4.97;3.80;;;;;;;9.44;100.00;98045.88;6216400;28;20316;-92
2023/09/15 02:57:52;;;;;;;4.33;3.83;;;;;;;10.08;100.00;98126.84;6222549;28;20368;-91
2023/09/15 03:00:54;;;;;;;4.00;3.70;;;;;;;10.85;100.00;98241.47;6212614;28;20224;-91
2023/09/15 03:03:57;;;;;;;4.63;3.97;;;;;;;9.81;100.00;98100.63;6232874;28;20729;-91
2023/09/15 03:07:00;;;;;;;4.37;3.83;;;;;;;10.29;100.00;98166.28;6224729;28;20305;-90
2023/09/15 03:10:03;;;;;;;5.07;3.70;;;;;;;9.75;100.00;98090.03;6209454;28;20227;-91
2023/09/15 03:13:06;;;;;;;5.77;4.20;;;;;;;9.24;100.00;98011.56;6232685;28;20231;-91
2023/09/15 03:16:11;;;;;;;7.33;4.10;;;;;;;11.18;100.00;98312.09;6218524;28;20226;-92
2023/09/15 03:19:15;;;;;;;4.63;4.23;;;;;;;9.76;100.00;98095.16;6233153;28;20254;-91
2023/09/15 03:22:18;;;;;;;3.97;3.67;;;;;;;8.91;100.00;97983.56;6225913;28;20274;-92
2023/09/15 03:25:20;;;;;;;6.30;4.20;;;;;;;10.52;100.00;98228.66;6227315;28;20224;-92
2023/09/15 03:28:23;;;;;;;4.07;3.67;;;;;;;8.85;100.00;97959.75;6210735;28;20223;-92
2023/09/15 03:31:26;;;;;;;6.00;4.10;;;;;;;9.29;100.00;98027.66;6212045;28;20596;-92
2023/09/15 03:34:30;;;;;;;4.50;4.03;;;;;;;9.94;100.00;98147.50;6204607;28;20231;-91
2023/09/15 03:37:33;;;;;;;5.00;4.40;;;;;;;9.22;100.00;98043.72;6210831;28;20219;-92
2023/09/15 03:40:35;;;;;;;4.70;4.17;;;;;;;10.16;100.00;98205.56;6223396;28;20236;-91
2023/09/15 03:43:39;;;;;;;6.33;4.63;;;;;;;9.90;100.00;98153.50;6213141;28;20256;-91
2023/09/15 03:46:41;;;;;;;6.03;5.43;;;;;;;9.99;100.00;98170.78;6226443;28;20723;-91
2023/09/15 03:49:47;;;;;;;7.90;4.83;;;;;;;10.22;100.00;98210.81;6210250;28;20315;-92
2023/09/15 03:52:49;;;;;;;13.63;4.37;;;;;;;10.30;100.00;98220.38;6224020;28;20239;-93
2023/09/15 03:55:54;;;;;;;4.83;4.40;;;;;;;9.49;100.00;98086.72;6219434;28;20730;-93
2023/09/15 03:58:58;;;;;;;4.87;4.37;;;;;;;9.67;100.00;98128.44;6218046;28;20235;-91
2023/09/15 04:02:03;;;;;;;6.17;4.77;;;;;;;10.32;100.00;98229.75;6241538;28;20251;-92
2023/09/15 04:05:06;;;;;;;5.07;4.57;;;;;;;10.18;100.00;98208.81;6212761;28;20693;-92
2023/09/15 04:08:09;;;;;;;4.63;4.23;;;;;;;9.52;100.00;98115.53;6237020;28;20738;-92
2023/09/15 04:11:11;;;;;;;4.30;3.90;;;;;;;10.78;100.00;98284.19;6210336;28;20300;-91
2023/09/15 04:14:13;;;;;;;4.20;3.70;;;;;;;10.12;100.00;98183.09;6214873;28;20243;-92
2023/09/15 04:17:16;;;;;;;6.07;4.87;;;;;;;8.66;100.00;97943.00;6224726;28;20231;-92
2023/09/15 04:20:19;;;;;;;5.87;4.90;;;;;;;10.24;100.00;98205.28;6214208;28;20259;-92
2023/09/15 04:23:40;;;;;;;6.37;4.60;;;;;;;9.69;100.00;98120.22;6212572;28;20331;-91
2023/09/15 04:26:43;;;;;;;5.20;4.33;;;;;;;8.68;100.00;97978.16;6201695;28;20226;-91
2023/09/15 04:29:54;;;;;;;4.53;4.10;;;;;;;9.51;100.00;98111.25;6221016;28;20314;-91
2023/09/15 04:33:04;;;;;;;3.77;3.47;;;;;;;10.30;100.00;98231.81;6230241;28;20292;-92
2023/09/15 04:36:07;;;;;;;5.10;4.13;;;;;;;9.73;100.00;98148.81;6234525;28;20230;-91
2023/09/15 04:39:11;;;;;;;4.90;4.50;;;;;;;9.78;100.00;98164.09;6252166;28;20211;-91
2023/09/15 04:42:13;;;;;;;5.37;4.87;;;;;;;9.74;100.00;98171.72;6226243;28;20219;-92
2023/09/15 04:45:16;;;;;;;5.70;5.10;;;;;;;9.43;100.00;98113.41;6232973;28;20225;-92
2023/09/15 04:48:19;;;;;;;7.57;4.73;;;;;;;10.65;100.00;98305.72;6241231;28;20206;-90
2023/09/15 04:51:22;;;;;;;5.73;5.10;;;;;;;9.81;100.00;98209.72;6232725;28;20274;-91
2023/09/15 04:54:26;;;;;;;6.03;5.40;;;;;;;9.02;100.00;98059.09;6226656;28;20224;-89
2023/09/15 04:57:31;;;;;;;7.73;5.63;;;;;;;9.83;100.00;98196.97;6235105;28;20287;-91
2023/09/15 05:00:35;;;;;;;5.93;4.93;;;;;;;9.37;100.00;98123.09;6240556;28;20223;-92
2023/09/15 05:03:38;;;;;;;5.20;4.73;;;;;;;9.49;100.00;98142.56;6248001;28;20226;-93
2023/09/15 05:06:43;;;;;;;5.87;5.27;;;;;;;9.29;100.00;98118.06;6229663;28;20803;-91
2023/09/15 05:09:46;;;;;;;7.33;6.47;;;;;;;9.07;100.00;98096.44;6246365;28;20230;-92
2023/09/15 05:12:49;;;;;;;6.27;5.37;;;;;;;10.07;100.00;98218.38;6233413;28;20246;-93
2023/09/15 05:15:52;;;;;;;7.63;5.73;;;;;;;10.66;100.00;98294.03;6248327;28;20252;-92
2023/09/15 05:18:57;;;;;;;8.23;5.50;;;;;;;10.37;100.00;98270.88;6230381;28;20220;-90
2023/09/15 05:22:00;;;;;;;5.53;5.03;;;;;;;10.73;100.00;98309.91;6219837;28;20235;-93
2023/09/15 05:25:07;;;;;;;5.67;5.10;;;;;;;9.73;100.00;98159.44;6201850;28;20316;-92
2023/09/15 05:28:14;;;;;;;7.90;5.80;;;;;;;8.45;100.00;97944.28;6251219;28;20241;-91
2023/09/15 05:31:17;;;;;;;6.90;6.20;;;;;;;10.05;100.00;98205.31;6231121;28;20320;-92
2023/09/15 05:34:20;;;;;;;6.57;5.87;;;;;;;10.87;100.00;98319.34;6217749;28;20238;-92
2023/09/15 05:37:23;;;;;;;5.40;4.87;;;;;;;10.57;100.00;98277.53;6218292;28;20225;-91
2023/09/15 05:40:26;;;;;;;9.00;7.23;;;;;;;10.79;100.00;98309.81;6234359;28;20599;-91
2023/09/15 05:43:29;;;;;;;9.03;7.00;;;;;;;9.45;100.00;98106.00;6219892;28;20586;-91
2023/09/15 05:46:32;;;;;;;9.03;6.90;;;;;;;9.53;100.00;98111.81;6226021;28;20320;-91
2023/09/15 05:49:34;;;;;;;7.97;5.83;;;;;;;10.66;100.00;98274.56;6218125;28;20226;-85
2023/09/15 05:52:38;;;;;;;5.93;5.43;;;;;;;10.04;100.00;98168.25;6216532;28;20261;-86
2023/09/15 05:55:42;;;;;;;7.57;5.97;;;;;;;10.70;100.00;98273.88;6235486;28;20223;-86
2023/09/15 05:58:45;;;;;;;7.00;6.30;;;;;;;10.62;100.00;98252.88;6254568;28;20227;-85
2023/09/15 06:01:47;;;;;;;6.73;6.10;;;;;;;10.85;100.00;98281.44;6235795;28;20588;-85
2023/09/15 06:04:51;;;;;;;7.07;6.37;;;;;;;10.82;100.00;98265.91;6247426;28;20226;-84
2023/09/15 06:07:55;;;;;;;8.37;6.97;;;;;;;11.20;100.00;98312.69;6224955;28;20302;-85
2023/09/15 06:11:00;;;;;;;7.27;5.90;;;;;;;10.98;100.00;98291.88;6234267;28;20223;-86
2023/09/15 06:14:02;;;;;;;6.07;5.50;;;;;;;11.01;100.00;98278.09;6219144;28;20862;-86
2023/09/15 06:17:04;;;;;;;5.57;5.07;;;;;;;11.01;100.00;98275.44;6235970;28;20284;-86
2023/09/15 06:20:07;;;;;;;5.97;5.43;;;;;;;11.29;100.00;98316.66;6213061;28;20238;-86
2023/09/15 06:23:10;;;;;;;6.57;5.87;;;;;;;11.17;100.00;98273.13;6233224;28;20995;-86
2023/09/15 06:26:12;;;;;;;6.30;5.70;;;;;;;11.27;100.00;98300.84;6226796;28;20301;-86
2023/09/15 06:29:18;;;;;;;6.83;6.23;;;;;;;11.47;100.00;98319.19;6247432;28;20269;-88
2023/09/15 06:32:21;;;;;;;6.70;6.00;;;;;;;11.34;100.00;98282.09;6232925;28;20220;-88
2023/09/15 06:35:23;;;;;;;5.97;5.33;;;;;;;11.43;100.00;98294.03;6247960;28;20631;-87
2023/09/15 06:38:26;;;;;;;6.93;6.23;;;;;;;11.20;100.00;98241.50;6216265;28;20230;-88
2023/09/15 06:41:30;;;;;;;6.13;5.53;;;;;;;10.69;100.00;98157.69;6216439;28;20227;-88
2023/09/15 06:44:34;;;;;;;8.70;5.50;;;;;;;11.69;100.00;98305.28;6249442;28;20219;-88
2023/09/15 06:47:39;;;;;;;6.03;5.43;;;;;;;11.63;100.00;98267.00;6228804;28;20211;-87
2023/09/15 06:50:57;;;;;;;6.73;5.90;;;;;;;12.08;100.00;98319.78;6231223;28;20281;-84
2023/09/15 06:54:00;;;;;;;7.20;6.60;;;;;;;11.77;100.00;98246.19;6227325;28;20220;-85
2023/09/15 06:57:03;;;;;;;8.40;7.00;;;;;;;12.23;100.00;98297.91;6228162;28;20222;-87
2023/09/15 07:00:09;;;;;;;8.80;7.73;;;;;;;12.16;100.00;98273.97;6232224;28;20223;-86
2023/09/15 07:03:11;;;;;;;7.17;6.47;;;;;;;11.39;100.00;98129.34;6228656;28;20218;-86
2023/09/15 07:06:13;;;;;;;8.17;7.27;;;;;;;12.53;100.00;98270.94;6232989;28;20695;-86
2023/09/15 07:09:16;;;;;;;7.97;7.17;;;;;;;12.82;100.00;98298.47;6229361;28;20207;-86
2023/09/15 07:12:19;;;;;;;8.73;7.17;;;;;;;12.25;100.00;98194.28;6232504;28;20208;-86
2023/09/15 07:15:23;;;;;;;8.30;7.53;;;;;;;12.85;100.00;98263.19;6230602;28;20226;-86
2023/09/15 07:18:26;;;;;;;7.83;7.07;;;;;;;12.75;100.00;98221.06;6224988;28;20231;-86
2023/09/15 07:21:31;;;;;;;7.33;6.63;;;;;;;11.78;100.00;98045.78;6224541;28;20268;-84
2023/09/15 07:24:41;;;;;;;11.07;7.97;;;;;;;13.35;100.00;98265.13;6235079;28;20224;-86
2023/09/15 07:27:49;;;;;;;7.67;6.97;;;;;;;13.06;100.00;98197.50;6212930;28;20258;-85
2023/09/15 07:31:04;;;;;;;7.97;7.17;;;;;;;13.65;100.00;98276.25;6212570;28;20373;-86
2023/09/15 07:34:07;;;;;;;9.07;6.67;;;;;;;13.79;100.00;98265.16;6216809;28;20231;-85
2023/09/15 07:37:12;;;;;;;7.17;6.47;;;;;;;13.98;100.00;98263.00;6231249;28;20662;-84
2023/09/15 07:40:14;;;;;;;8.57;7.40;;;;;;;14.29;100.00;98291.00;6234569;28;20223;-84
2023/09/15 07:43:17;;;;;;;7.43;6.73;;;;;;;14.24;100.00;98251.53;6229230;28;20691;-85
2023/09/15 07:46:20;;;;;;;7.70;7.00;;;;;;;14.00;100.00;98197.41;6234806;28;20224;-85
2023/09/15 07:49:22;;;;;;;7.43;6.73;;;;;;;14.53;100.00;98244.09;6232932;28;20656;-86
2023/09/15 07:52:26;;;;;;;7.37;5.70;;;;;;;14.75;100.00;98253.94;6222317;28;20235;-86
2023/09/15 07:55:34;;;;;;;11.00;7.50;;;;;;;14.71;100.00;98208.06;6230392;28;20636;-85
2023/09/15 07:58:43;;;;;;;8.20;6.77;;;;;;;15.26;100.00;98281.19;6213108;28;20220;-87
2023/09/15 08:01:47;;;;;;;5.77;5.27;;;;;;;14.87;100.00;98203.63;6221373;28;20238;-86
2023/09/15 08:04:49;;;;;;;6.20;5.60;;;;;;;15.32;100.00;98248.78;6234366;28;20372;-82
2023/09/15 08:07:51;;;;;;;7.20;6.53;;;;;;;14.53;100.00;98099.34;6229969;28;20897;-85
2023/09/15 08:10:57;;;;;;;10.10;7.40;;;;;;;15.71;100.00;98265.44;6233583;28;20219;-86
2023/09/15 08:14:01;;;;;;;8.40;7.60;;;;;;;15.67;100.00;98225.91;6230122;28;20232;-84
2023/09/15 08:17:03;;;;;;;6.07;5.47;;;;;;;15.55;99.88;98176.94;6217213;28;20600;-86
2023/09/15 08:20:06;;;;;;;6.67;5.60;;;;;;;15.96;99.97;98234.38;6233334;28;20227;-84
2023/09/15 08:23:12;;;;;;;8.63;6.20;;;;;;;16.41;94.03;98263.28;6231362;28;20278;-85
2023/09/15 08:26:14;;;;;;;6.93;5.50;;;;;;;16.36;94.27;98252.53;6218704;28;20235;-85
2023/09/15 08:29:16;;;;;;;9.47;6.67;;;;;;;16.69;90.47;98275.44;6214140;28;20265;-86
2023/09/15 08:32:19;;;;;;;6.27;4.50;;;;;;;16.65;93.20;98244.78;6228610;28;20280;-87
2023/09/15 08:35:21;;;;;;;6.67;5.23;;;;;;;16.95;94.65;98272.81;6232182;28;20256;-86
2023/09/15 08:38:25;;;;;;;4.87;4.40;;;;;;;16.76;95.29;98240.25;6234470;28;20249;-82
2023/09/15 08:41:33;;;;;;;7.37;6.10;;;;;;;17.09;85.89;98271.19;6229828;28;20384;-86
2023/09/15 08:44:36;;;;;;;7.37;6.57;;;;;;;16.87;86.91;98219.53;6227827;28;20231;-84
2023/09/15 08:47:47;;;;;;;6.33;5.57;;;;;;;17.32;79.74;98263.66;6230388;28;20227;-85
2023/09/15 08:50:52;;;;;;;7.70;6.40;;;;;;;17.37;78.34;98255.56;6231141;28;20618;-86
2023/09/15 08:53:58;;;;;;;8.30;5.77;;;;;;;17.55;79.49;98268.47;6240375;28;20220;-90
2023/09/15 08:57:01;;;;;;;9.87;6.97;;;;;;;17.19;76.96;98198.53;6214499;28;20265;-87
2023/09/15 09:00:07;;;;;;;9.07;6.23;;;;;;;17.52;77.26;98215.13;6218148;28;20227;-83
2023/09/15 09:03:12;;;;;;;7.17;5.43;;;;;;;17.67;77.01;98227.75;6214770;28;20543;-92
2023/09/15 09:06:16;;;;;;;6.27;5.53;;;;;;;17.70;77.82;98229.91;6235926;28;20551;-85
2023/09/15 09:09:19;;;;;;;8.20;5.90;;;;;;;17.66;74.24;98208.09;6229971;28;20672;-85
2023/09/15 09:12:21;;;;;;;5.40;4.10;;;;;;;18.07;76.37;98256.47;6229485;28;20231;-86
2023/09/15 09:15:26;;;;;;;5.30;4.80;;;;;;;18.09;73.61;98257.03;6232282;28;20609;-87
2023/09/15 09:18:29;;;;;;;5.40;4.90;;;;;;;17.74;70.72;98180.59;6260559;28;20234;-87
2023/09/15 09:21:32;;;;;;;4.97;4.47;;;;;;;18.11;69.67;98222.50;6245011;28;20728;-88
2023/09/15 09:24:36;;;;;;;4.90;4.40;;;;;;;18.33;70.42;98256.38;6210110;28;20216;-88
2023/09/15 09:27:41;;;;;;;4.30;3.90;;;;;;;17.70;69.78;98139.09;6203091;28;20255;-86
2023/09/15 09:30:44;;;;;;;8.63;5.00;;;;;;;18.49;66.31;98239.81;6225081;28;20301;-86
2023/09/15 09:33:46;;;;;;;7.20;4.30;;;;;;;18.52;66.53;98235.72;6197968;28;20595;-88
2023/09/15 09:36:49;;;;;;;4.23;3.50;;;;;;;18.42;69.59;98208.81;6233843;28;20779;-87
2023/09/15 09:39:53;;;;;;;5.93;4.73;;;;;;;18.79;68.34;98257.72;6214178;28;20227;-88
2023/09/15 09:42:55;;;;;;;6.23;5.23;;;;;;;17.97;67.73;98127.91;6206511;28;20267;-87
2023/09/15 09:45:58;;;;;;;6.20;4.37;;;;;;;18.45;68.07;98202.88;6230640;28;20235;-90
2023/09/15 09:49:00;;;;;;;6.30;4.53;;;;;;;18.54;68.70;98223.59;6244204;28;20235;-90
2023/09/15 09:52:04;;;;;;;5.77;4.47;;;;;;;18.62;68.29;98230.31;6231995;28;20239;-89
2023/09/15 09:55:10;;;;;;;5.90;5.00;;;;;;;18.56;66.53;98196.31;6236515;28;20226;-89
2023/09/15 09:58:15;;;;;;;6.67;4.70;;;;;;;18.76;63.55;98220.50;6231051;28;20709;-90
2023/09/15 10:01:18;;;;;;;9.17;5.40;;;;;;;18.18;63.96;98115.13;6228147;28;20236;-90
2023/09/15 10:04:21;;;;;;;4.53;4.13;;;;;;;18.92;64.54;98198.78;6228500;28;20223;-89
2023/09/15 10:07:25;;;;;;;6.37;4.30;;;;;;;19.33;65.05;98255.94;6214384;28;20731;-90
2023/09/15 10:10:28;;;;;;;6.80;6.20;;;;;;;19.30;62.22;98245.69;6244692;28;20273;-88
2023/09/15 10:13:34;;;;;;;7.33;5.60;;;;;;;19.16;62.58;98223.97;6229674;28;20645;-88
2023/09/15 10:16:36;;;;;;;4.50;4.03;;;;;;;19.15;61.96;98208.81;6230968;28;20227;-89
2023/09/15 10:19:39;;;;;;;4.97;4.00;;;;;;;19.07;61.25;98185.16;6214621;28;20225;-89
2023/09/15 10:22:42;;;;;;;6.47;4.13;;;;;;;19.45;61.00;98245.53;6244493;28;20240;-89
2023/09/15 10:25:52;;;;;;;4.03;3.33;;;;;;;19.32;59.97;98233.53;6230987;28;20247;-89
2023/09/15 10:28:54;;;;;;;5.00;4.43;;;;;;;19.44;58.87;98232.31;6245100;28;20223;-88
2023/09/15 10:32:02;;;;;;;4.23;3.57;;;;;;;19.33;60.21;98194.59;6244947;28;20226;-89
2023/09/15 10:35:09;;;;;;;4.40;4.00;;;;;;;19.34;59.31;98206.22;6245801;28;20855;-89
2023/09/15 10:38:11;;;;;;;5.37;4.03;;;;;;;19.38;60.48;98217.25;6228243;28;20259;-89
2023/09/15 10:41:27;;;;;;;4.30;3.47;;;;;;;19.56;61.30;98230.84;6227165;28;20238;-90
2023/09/15 10:44:29;;;;;;;6.17;4.63;;;;;;;19.41;57.58;98198.59;6230980;28;20724;-92
2023/09/15 10:47:32;;;;;;;5.73;3.63;;;;;;;19.00;60.16;98126.06;6226207;28;20239;-88
2023/09/15 10:50:39;;;;;;;3.87;3.00;;;;;;;19.62;58.17;98212.72;6228472;28;20226;-90
2023/09/15 10:53:47;;;;;;;4.17;3.43;;;;;;;18.88;56.03;98078.97;6245875;28;20712;-86
2023/09/15 10:56:49;;;;;;;6.07;2.90;;;;;;;18.55;55.18;97970.75;6211868;28;20228;-90
2023/09/15 10:59:54;;;;;;;4.70;3.33;;;;;;;19.98;56.08;98185.25;6214489;28;20223;-90
2023/09/15 11:02:57;;;;;;;5.40;3.77;;;;;;;19.89;53.72;98173.47;6227244;28;20539;-89
2023/09/15 11:06:01;;;;;;;4.00;3.37;;;;;;;20.15;52.82;98209.91;6228851;28;20219;-90
2023/09/15 11:09:05;;;;;;;4.17;3.60;;;;;;;20.18;54.30;98219.34;6229065;28;20227;-88
2023/09/15 11:12:10;;;;;;;4.93;4.10;;;;;;;19.95;53.57;98196.63;6225600;28;20235;-89
2023/09/15 11:15:13;;;;;;;3.00;2.80;;;;;;;19.83;55.00;98189.75;6225672;28;20226;-90
2023/09/15 11:18:18;;;;;;;3.17;2.70;;;;;;;19.58;52.84;98173.81;6243838;28;20220;-90
2023/09/15 11:21:25;;;;;;;4.07;3.67;;;;;;;19.29;55.24;98060.38;6230506;28;20220;-92
2023/09/15 11:24:28;;;;;;;3.90;3.13;;;;;;;19.43;54.25;98138.84;6232913;28;20768;-91
2023/09/15 11:27:33;;;;;;;3.30;3.00;;;;;;;18.71;53.49;98047.00;6213980;28;20226;-90
2023/09/15 11:30:35;;;;;;;2.80;2.60;;;;;;;19.77;55.12;98223.34;6226563;28;20236;-89
2023/09/15 11:33:41;;;;;;;3.13;2.83;;;;;;;19.36;56.41;98139.22;6214745;28;20219;-90
2023/09/15 11:36:44;;;;;;;3.10;2.90;;;;;;;19.77;57.36;98180.09;6198974;28;20655;-90
2023/09/15 11:39:50;;;;;;;3.23;2.87;;;;;;;19.35;58.93;98118.66;6209369;28;20269;-90
2023/09/15 11:42:59;;;;;;;3.70;2.50;;;;;;;19.93;58.38;98193.41;6203707;28;20220;-91
2023/09/15 11:46:07;;;;;;;4.63;3.13;;;;;;;18.60;54.64;97970.72;6208222;28;20228;-89
2023/09/15 11:49:10;;;;;;;4.87;3.07;;;;;;;19.90;56.20;98151.56;6245811;28;20223;-90
2023/09/15 11:52:12;;;;;;;2.77;2.57;;;;;;;18.72;58.96;97959.56;6228461;28;20246;-90
2023/09/15 11:55:22;;;;;;;3.97;2.97;;;;;;;19.51;59.77;98089.59;6229329;28;20224;-89
2023/09/15 11:58:24;;;;;;;4.00;2.70;;;;;;;20.05;56.39;98145.94;6214795;28;20231;-90
2023/09/15 12:01:28;;;;;;;3.10;2.63;;;;;;;19.27;56.49;98063.38;6227929;28;20614;-90
2023/09/15 12:04:31;;;;;;;2.97;2.77;;;;;;;18.77;55.89;97964.91;6200829;28;20229;-89
2023/09/15 12:07:33;;;;;;;5.83;2.80;;;;;;;19.69;54.76;98079.91;6225476;28;20717;-90
2023/09/15 12:10:35;;;;;;;4.17;3.33;;;;;;;20.01;53.58;98136.78;6210906;28;20764;-92
2023/09/15 12:13:38;;;;;;;3.67;3.27;;;;;;;20.53;53.67;98161.22;6248659;28;20234;-92
2023/09/15 12:16:44;;;;;;;3.20;2.90;;;;;;;20.53;54.15;98172.84;6226798;28;20231;-93
2023/09/15 12:19:48;;;;;;;2.90;2.70;;;;;;;20.22;54.86;98118.34;6239434;28;20222;-91
2023/09/15 12:22:54;;;;;;;4.17;2.70;;;;;;;19.59;54.79;98035.69;6219731;28;20231;-92
2023/09/15 12:25:56;;;;;;;4.00;2.87;;;;;;;20.38;54.13;98108.09;6241983;28;20220;-92
2023/09/15 12:28:59;;;;;;;3.70;3.30;;;;;;;19.62;53.31;98017.31;6230458;28;20310;-93
2023/09/15 12:32:04;;;;;;;3.17;2.87;;;;;;;20.12;55.12;98074.44;6218214;28;20223;-92
2023/09/15 12:35:11;;;;;;;3.67;3.13;;;;;;;19.92;55.18;98052.00;6219507;28;20223;-91
2023/09/15 12:38:15;;;;;;;2.67;2.43;;;;;;;20.35;56.01;98098.69;6217101;28;20226;-85
2023/09/15 12:41:18;;;;;;;5.63;3.07;;;;;;;20.74;55.03;98138.16;6234369;28;20671;-88
2023/09/15 12:44:21;;;;;;;3.43;3.13;;;;;;;20.49;54.00;98076.28;6217396;28;20227;-89
2023/09/15 12:47:23;;;;;;;4.97;3.17;;;;;;;20.54;55.52;98070.78;6235971;28;20703;-85
2023/09/15 12:50:25;;;;;;;3.30;3.00;;;;;;;20.89;53.46;98130.88;6228955;28;20219;-84
2023/09/15 12:53:27;;;;;;;5.23;3.00;;;;;;;20.66;53.73;98114.44;6251164;28;20697;-86
2023/09/15 12:56:31;;;;;;;3.47;2.90;;;;;;;20.39;54.17;98066.41;6235425;28;20251;-86
2023/09/15 12:59:33;;;;;;;3.53;2.73;;;;;;;20.43;53.93;98067.41;6244365;28;20238;-85
2023/09/15 13:02:35;;;;;;;3.40;2.50;;;;;;;20.61;54.33;98088.25;6251048;28;20723;-85
2023/09/15 13:05:38;;;;;;;5.03;3.40;;;;;;;20.54;54.56;98070.78;6254045;28;20748;-86
2023/09/15 13:08:40;;;;;;;3.10;2.60;;;;;;;20.86;55.43;98094.34;6251830;28;20215;-86
2023/09/15 13:11:42;;;;;;;5.40;2.60;;;;;;;20.73;57.52;98089.69;6234885;28;20245;-85
2023/09/15 13:14:45;;;;;;;2.87;2.57;;;;;;;20.54;53.91;98070.78;6231435;28;20700;-83
2023/09/15 13:17:50;;;;;;;3.40;3.10;;;;;;;20.31;53.50;98032.72;6216756;28;20360;-84
2023/09/15 13:20:52;;;;;;;3.13;2.83;;;;;;;20.12;53.73;97996.78;6234676;28;20731;-84
2023/09/15 13:23:54;;;;;;;3.33;3.00;;;;;;;20.53;53.92;98063.78;6234804;28;20238;-84
2023/09/15 13:26:56;;;;;;;3.23;2.93;;;;;;;20.57;53.98;98056.66;6218659;28;20313;-84
2023/09/15 13:29:59;;;;;;;17.57;10.23;;;;;;;20.47;56.12;98040.59;6234712;28;20311;-88
2023/09/15 13:33:01;;;;;;;4.90;3.47;;;;;;;20.32;57.75;98037.03;6233286;28;20318;-87
2023/09/15 13:36:04;;;;;;;3.93;3.40;;;;;;;20.58;58.40;98085.34;6231823;28;20224;-87
2023/09/15 13:39:07;;;;;;;3.23;2.87;;;;;;;20.27;54.65;98023.59;6247123;28;20669;-91
2023/09/15 13:42:10;;;;;;;2.90;2.57;;;;;;;20.67;56.32;98064.59;6217084;28;20238;-85
2023/09/15 13:45:15;;;;;;;2.70;2.50;;;;;;;20.46;59.21;98017.31;6235415;28;20314;-86
2023/09/15 13:48:18;;;;;;;5.17;2.50;;;;;;;20.42;57.63;98021.72;6225089;28;20204;-85
2023/09/15 13:51:20;;;;;;;2.70;2.43;;;;;;;20.48;57.50;98024.06;6233923;28;21353;-85
2023/09/15 13:54:37;;;;;;;2.90;2.60;;;;;;;20.29;57.96;97997.03;6235112;28;20766;-85
2023/09/15 13:57:39;;;;;;;4.80;2.60;;;;;;;20.38;59.28;98026.91;6232000;28;20696;-85
2023/09/15 14:00:54;;;;;;;2.57;2.37;;;;;;;20.58;60.39;98069.09;6217897;28;20727;-84
2023/09/15 14:03:57;;;;;;;2.77;2.37;;;;;;;19.96;60.88;97987.34;6226155;28;20834;-85
2023/09/15 14:07:04;;;;;;;2.80;2.60;;;;;;;20.43;62.47;98053.88;6215291;28;20731;-84
2023/09/15 14:10:07;;;;;;;3.77;2.70;;;;;;;20.01;62.31;97998.88;6229538;28;20311;-84
2023/09/15 14:13:10;;;;;;;3.23;2.77;;;;;;;20.59;57.84;98057.16;6225080;28;20236;-85
2023/09/15 14:16:12;;;;;;;2.63;2.43;;;;;;;20.51;59.01;98011.84;6229080;28;20605;-85
2023/09/15 14:19:14;;;;;;;5.87;2.83;;;;;;;20.33;60.75;97995.34;6238733;28;20602;-85
2023/09/15 14:22:16;;;;;;;5.30;3.23;;;;;;;20.58;59.97;98039.31;6225980;28;20238;-85